createdAt,value
2019-03-06T00:00:29.801Z,7.47
2019-03-06T00:02:58.325Z,7.30
2019-03-06T00:05:24.844Z,6.25
2019-03-06T00:07:51.543Z,6.28
2019-03-06T00:10:24.599Z,5.67
2019-03-06T00:12:51.075Z,6.53
2019-03-06T00:15:31.301Z,5.58
2019-03-06T00:17:57.910Z,5.75
2019-03-06T00:20:24.528Z,6.25
2019-03-06T00:22:51.020Z,5.58
2019-03-06T00:25:17.685Z,5.12
2019-03-06T00:27:44.205Z,5.45
2019-03-06T00:30:12.580Z,4.85
2019-03-06T00:32:40.463Z,5.55
2019-03-06T00:35:10.634Z,5.05
2019-03-06T00:37:51.046Z,6.12
2019-03-06T00:40:37.899Z,5.85
2019-03-06T00:43:04.770Z,5.67
2019-03-06T00:45:32.389Z,5.53
2019-03-06T00:47:58.880Z,7.33
2019-03-06T00:50:25.376Z,7.70
2019-03-06T00:52:51.875Z,9.58
2019-03-06T00:55:18.427Z,11.12
2019-03-06T00:57:44.848Z,15.28
2019-03-06T01:00:24.512Z,17.70
2019-03-06T01:03:10.924Z,17.15
2019-03-06T01:05:37.339Z,16.35
2019-03-06T01:08:03.693Z,16.60
2019-03-06T01:10:30.247Z,14.25
2019-03-06T01:12:56.649Z,11.35
2019-03-06T01:15:35.968Z,9.08
2019-03-06T01:18:02.418Z,8.20
2019-03-06T01:20:28.887Z,7.03
2019-03-06T01:22:55.200Z,7.55
2019-03-06T01:25:21.721Z,7.25
2019-03-06T01:27:48.203Z,7.67
2019-03-06T01:30:23.666Z,7.20
2019-03-06T01:33:03.949Z,7.22
2019-03-06T01:35:49.020Z,7.35
2019-03-06T01:38:34.091Z,6.58
2019-03-06T01:41:08.427Z,6.60
2019-03-06T01:43:45.846Z,6.60
2019-03-06T01:46:12.301Z,7.08
2019-03-06T01:48:38.760Z,7.50
2019-03-06T01:51:05.092Z,6.95
2019-03-06T01:53:31.664Z,6.70
2019-03-06T01:55:58.765Z,6.60
2019-03-06T01:58:25.271Z,6.95
2019-03-06T02:00:51.764Z,8.30
2019-03-06T02:03:38.943Z,8.45
2019-03-06T02:06:05.623Z,7.55
2019-03-06T02:08:32.541Z,8.45
2019-03-06T02:10:59.087Z,8.10
2019-03-06T02:13:25.478Z,8.70
2019-03-06T02:15:53.109Z,7.62
2019-03-06T02:18:19.527Z,9.23
2019-03-06T02:20:45.975Z,9.23
2019-03-06T02:23:12.690Z,9.53
2019-03-06T02:25:39.031Z,9.00
2019-03-06T02:28:18.931Z,8.70
2019-03-06T02:30:58.845Z,8.98
2019-03-06T02:33:25.208Z,7.80
2019-03-06T02:35:51.632Z,7.90
2019-03-06T02:38:18.074Z,7.75
2019-03-06T02:40:44.490Z,8.08
2019-03-06T02:43:11.013Z,7.75
2019-03-06T02:45:37.365Z,7.00
2019-03-06T02:48:23.923Z,7.75
2019-03-06T02:50:50.393Z,7.40
2019-03-06T02:53:36.663Z,6.60
2019-03-06T02:56:04.304Z,6.95
2019-03-06T02:58:39.018Z,7.62
2019-03-06T03:01:24.259Z,7.42
2019-03-06T03:04:01.652Z,7.60
2019-03-06T03:06:33.072Z,7.50
2019-03-06T03:08:59.570Z,7.35
2019-03-06T03:11:25.998Z,8.08
2019-03-06T03:13:52.517Z,8.13
2019-03-06T03:16:19.576Z,8.08
2019-03-06T03:18:46.031Z,7.83
2019-03-06T03:21:12.495Z,7.83
2019-03-06T03:23:39.190Z,7.35
2019-03-06T03:26:05.645Z,7.12
2019-03-06T03:28:32.169Z,7.40
2019-03-06T03:30:58.633Z,7.92
2019-03-06T03:33:25.332Z,8.18
2019-03-06T03:35:51.862Z,8.23
2019-03-06T03:38:32.018Z,8.78
2019-03-06T03:40:58.364Z,12.90
2019-03-06T03:43:24.816Z,16.87
2019-03-06T03:45:51.419Z,18.42
2019-03-06T03:48:17.761Z,19.12
2019-03-06T03:50:44.293Z,19.80
2019-03-06T03:53:24.264Z,19.05
2019-03-06T03:55:51.934Z,19.30
2019-03-06T03:58:18.982Z,18.07
2019-03-06T04:00:45.395Z,19.27
2019-03-06T04:03:11.849Z,18.80
2019-03-06T04:05:38.256Z,18.50
2019-03-06T04:08:04.826Z,18.12
2019-03-06T04:10:31.207Z,17.17
2019-03-06T04:12:57.855Z,15.55
2019-03-06T04:15:24.281Z,16.32
2019-03-06T04:17:50.709Z,16.82
2019-03-06T04:20:17.565Z,17.02
2019-03-06T04:22:44.066Z,16.77
2019-03-06T04:25:10.683Z,16.82
2019-03-06T04:27:37.103Z,17.23
2019-03-06T04:30:09.805Z,16.80
2019-03-06T04:32:36.280Z,17.37
2019-03-06T04:35:22.668Z,16.62
2019-03-06T04:37:49.103Z,16.32
2019-03-06T04:40:15.799Z,15.88
2019-03-06T04:42:42.253Z,16.10
2019-03-06T04:45:11.373Z,16.62
2019-03-06T04:47:37.694Z,16.00
2019-03-06T04:50:25.972Z,15.65
2019-03-06T04:53:06.028Z,16.27
2019-03-06T04:55:32.477Z,15.70
2019-03-06T04:57:58.869Z,16.20
2019-03-06T05:00:25.302Z,14.90
2019-03-06T05:02:52.034Z,16.02
2019-03-06T05:05:18.342Z,15.28
2019-03-06T05:07:44.885Z,16.55
2019-03-06T05:10:12.718Z,16.00
2019-03-06T05:12:39.174Z,16.15
2019-03-06T05:15:08.802Z,16.73
2019-03-06T05:17:40.331Z,16.02
2019-03-06T05:20:07.346Z,17.82
2019-03-06T05:22:46.713Z,17.62
2019-03-06T05:25:13.147Z,18.12
2019-03-06T05:27:40.938Z,19.10
2019-03-06T05:30:12.829Z,20.68
2019-03-06T05:32:39.168Z,17.70
2019-03-06T05:35:12.171Z,17.60
2019-03-06T05:37:51.317Z,15.75
2019-03-06T05:40:17.746Z,16.35
2019-03-06T05:42:44.296Z,15.28
2019-03-06T05:45:15.773Z,14.75
2019-03-06T05:47:42.991Z,15.48
2019-03-06T05:50:09.772Z,17.55
2019-03-06T05:52:37.192Z,26.62
2019-03-06T05:55:04.721Z,31.25
2019-03-06T05:57:31.185Z,34.08
2019-03-06T05:59:57.865Z,37.70
2019-03-06T06:02:24.293Z,41.65
2019-03-06T06:04:51.218Z,41.35
2019-03-06T06:07:17.823Z,41.33
2019-03-06T06:09:44.251Z,41.98
2019-03-06T06:12:10.559Z,41.65
2019-03-06T06:14:37.016Z,43.17
2019-03-06T06:17:03.436Z,44.25
2019-03-06T06:19:30.983Z,45.30
2019-03-06T06:22:02.031Z,44.85
2019-03-06T06:24:31.559Z,43.13
2019-03-06T06:27:11.277Z,44.53
2019-03-06T06:29:37.681Z,42.25
2019-03-06T06:32:04.178Z,43.73
2019-03-06T06:34:30.755Z,41.00
2019-03-06T06:36:57.312Z,37.38
2019-03-06T06:39:25.019Z,38.38
2019-03-06T06:42:11.214Z,37.30
2019-03-06T06:44:37.666Z,38.13
2019-03-06T06:47:04.167Z,37.23
2019-03-06T06:49:30.590Z,38.08
2019-03-06T06:52:22.188Z,39.63
2019-03-06T06:55:00.808Z,39.15
2019-03-06T06:57:39.521Z,37.63
2019-03-06T07:00:16.370Z,33.80
2019-03-06T07:03:15.370Z,36.65
2019-03-06T07:05:50.531Z,38.50
2019-03-06T07:08:37.002Z,33.65
2019-03-06T07:11:08.036Z,29.37
2019-03-06T07:13:54.271Z,28.07
2019-03-06T07:16:31.727Z,29.85
2019-03-06T07:19:14.953Z,31.62
2019-03-06T07:21:43.406Z,29.27
2019-03-06T07:24:11.884Z,32.15
2019-03-06T07:26:46.008Z,28.87
2019-03-06T07:29:14.332Z,26.82
2019-03-06T07:31:59.556Z,25.37
2019-03-06T07:34:30.914Z,29.12
2019-03-06T07:37:02.373Z,28.50
2019-03-06T07:39:32.083Z,27.95
2019-03-06T07:42:03.040Z,27.65
2019-03-06T07:44:47.890Z,29.77
2019-03-06T07:47:35.587Z,29.65
2019-03-06T07:50:09.419Z,30.72
2019-03-06T07:52:40.610Z,33.30
2019-03-06T07:55:10.166Z,33.90
2019-03-06T07:58:12.081Z,30.02
2019-03-06T08:00:38.682Z,30.70
2019-03-06T08:03:06.020Z,30.30
2019-03-06T08:05:32.470Z,31.27
2019-03-06T08:08:00.204Z,30.45
2019-03-06T08:10:40.843Z,33.33
2019-03-06T08:13:09.525Z,33.38
2019-03-06T08:15:40.592Z,31.73
2019-03-06T08:18:08.937Z,31.80
2019-03-06T08:20:39.967Z,29.57
2019-03-06T08:23:20.273Z,28.77
2019-03-06T08:25:48.590Z,31.85
2019-03-06T08:28:18.204Z,30.00
2019-03-06T08:31:01.840Z,30.12
2019-03-06T08:33:28.457Z,32.03
2019-03-06T08:35:55.068Z,32.88
2019-03-06T08:38:21.598Z,31.85
2019-03-06T08:40:47.921Z,32.08
2019-03-06T08:43:14.268Z,32.20
2019-03-06T08:45:42.615Z,36.28
2019-03-06T08:48:11.049Z,35.50
2019-03-06T08:50:56.247Z,36.03
2019-03-06T08:56:17.930Z,36.42
2019-03-06T08:58:46.316Z,37.78
2019-03-06T09:01:43.440Z,39.05
2019-03-06T09:04:11.783Z,37.98
2019-03-06T09:06:49.223Z,36.90
2019-03-06T09:09:35.707Z,36.13
2019-03-06T09:12:04.086Z,35.78
2019-03-06T09:14:48.984Z,35.30
2019-03-06T09:17:20.741Z,34.05
2019-03-06T09:19:49.190Z,33.73
2019-03-06T09:22:26.581Z,29.98
2019-03-06T09:25:11.673Z,37.40
2019-03-06T09:27:39.983Z,37.50
2019-03-06T09:30:29.713Z,40.05
2019-03-06T09:32:58.015Z,40.30
2019-03-06T09:35:43.267Z,40.12
2019-03-06T09:38:23.935Z,39.08
2019-03-06T09:41:07.293Z,40.70
2019-03-06T09:43:47.595Z,39.18
2019-03-06T09:46:15.959Z,40.52
2019-03-06T09:48:50.039Z,39.98
2019-03-06T09:51:27.370Z,38.87
2019-03-06T09:54:10.913Z,39.33
2019-03-06T09:56:49.466Z,40.48
2019-03-06T09:59:17.702Z,39.92
2019-03-06T10:01:46.583Z,40.00
2019-03-06T10:04:30.182Z,41.10
2019-03-06T10:06:58.627Z,41.55
2019-03-06T10:09:36.263Z,40.25
2019-03-06T10:12:07.603Z,41.88
2019-03-06T10:14:38.929Z,42.08
2019-03-06T10:17:10.179Z,42.43
2019-03-06T10:19:38.622Z,42.62
2019-03-06T10:22:05.032Z,44.23
2019-03-06T10:24:31.886Z,43.65
2019-03-06T10:26:58.419Z,45.75
2019-03-06T10:29:25.238Z,47.93
2019-03-06T10:31:51.641Z,48.30
2019-03-06T10:34:18.449Z,45.75
2019-03-06T10:36:44.968Z,48.40
2019-03-06T10:39:13.681Z,48.50
2019-03-06T10:41:40.134Z,48.68
2019-03-06T10:44:07.651Z,48.17
2019-03-06T10:46:34.217Z,48.55
2019-03-06T10:49:00.741Z,49.53
2019-03-06T10:51:27.238Z,48.42
2019-03-06T10:53:53.679Z,48.55
2019-03-06T10:56:20.490Z,50.43
2019-03-06T10:58:47.035Z,49.58
2019-03-06T11:01:14.083Z,49.90
2019-03-06T11:03:42.390Z,47.50
2019-03-06T11:06:09.629Z,47.55
2019-03-06T11:08:36.143Z,49.30
2019-03-06T11:11:03.658Z,47.78
2019-03-06T11:13:31.340Z,46.77
2019-03-06T11:15:57.713Z,47.35
2019-03-06T11:18:24.147Z,48.00
2019-03-06T11:20:50.568Z,43.13
2019-03-06T11:23:17.011Z,42.83
2019-03-06T11:25:43.515Z,41.40
2019-03-06T11:28:11.149Z,37.10
2019-03-06T11:30:44.125Z,35.05
2019-03-06T11:33:10.627Z,33.13
2019-03-06T11:35:37.168Z,34.03
2019-03-06T11:38:03.592Z,36.00
2019-03-06T11:40:30.962Z,36.30
2019-03-06T11:42:57.546Z,36.28
2019-03-06T11:45:24.097Z,36.48
2019-03-06T11:47:50.599Z,36.50
2019-03-06T11:50:17.013Z,35.83
2019-03-06T11:52:43.544Z,37.55
2019-03-06T11:55:12.272Z,37.10
2019-03-06T11:57:38.802Z,35.52
2019-03-06T12:00:13.959Z,34.30
2019-03-06T12:02:54.250Z,34.70
2019-03-06T12:05:22.286Z,32.67
2019-03-06T12:07:48.741Z,33.23
2019-03-06T12:10:15.157Z,32.00
2019-03-06T12:12:41.644Z,31.10
2019-03-06T12:15:10.446Z,32.28
2019-03-06T12:17:36.961Z,32.38
2019-03-06T12:20:08.402Z,33.88
2019-03-06T12:22:34.509Z,33.67
2019-03-06T12:25:00.930Z,30.40
2019-03-06T12:27:29.385Z,31.12
2019-03-06T12:29:55.881Z,30.68
2019-03-06T12:32:23.440Z,31.48
2019-03-06T12:34:49.947Z,29.02
2019-03-06T12:37:16.394Z,30.23
2019-03-06T12:39:42.818Z,28.87
2019-03-06T12:42:14.276Z,28.60
2019-03-06T12:44:37.475Z,29.23
2019-03-06T12:47:03.916Z,27.87
2019-03-06T12:49:30.403Z,26.73
2019-03-06T12:51:56.922Z,27.65
2019-03-06T12:54:23.438Z,27.05
2019-03-06T12:56:49.872Z,25.90
2019-03-06T12:59:16.267Z,26.95
2019-03-06T13:01:43.101Z,25.02
2019-03-06T13:04:10.085Z,26.55
2019-03-06T13:06:36.523Z,25.72
2019-03-06T13:09:07.755Z,25.57
2019-03-06T13:11:36.053Z,22.77
2019-03-06T13:14:02.477Z,21.60
2019-03-06T13:16:28.909Z,22.75
2019-03-06T13:18:55.715Z,21.17
2019-03-06T13:21:22.211Z,19.07
2019-03-06T13:23:48.605Z,18.75
2019-03-06T13:26:15.039Z,17.07
2019-03-06T13:28:41.454Z,19.12
2019-03-06T13:31:07.970Z,19.48
2019-03-06T13:33:39.125Z,17.70
2019-03-06T13:36:05.953Z,18.30
2019-03-06T13:38:32.493Z,19.42
2019-03-06T13:40:59.055Z,22.10
2019-03-06T13:43:25.424Z,23.87
2019-03-06T13:45:51.987Z,24.37
2019-03-06T13:48:19.477Z,22.48
2019-03-06T13:50:46.067Z,22.95
2019-03-06T13:53:20.062Z,21.48
2019-03-06T13:55:40.881Z,20.75
2019-03-06T13:58:07.338Z,19.52
2019-03-06T14:00:33.721Z,21.20
2019-03-06T14:03:00.283Z,20.30
2019-03-06T14:05:26.705Z,20.23
2019-03-06T14:07:56.253Z,15.40
2019-03-06T14:10:22.630Z,14.28
2019-03-06T14:12:49.327Z,14.55
2019-03-06T14:15:16.953Z,14.83
2019-03-06T14:17:43.620Z,15.72
2019-03-06T14:20:13.863Z,15.98
2019-03-06T14:22:40.533Z,15.15
2019-03-06T14:25:08.699Z,14.43
2019-03-06T14:27:35.192Z,12.95
2019-03-06T14:30:05.675Z,12.15
2019-03-06T14:32:32.171Z,11.22
2019-03-06T14:34:58.601Z,11.48
2019-03-06T14:37:25.013Z,13.58
2019-03-06T14:39:51.436Z,14.03
2019-03-06T14:42:17.961Z,12.75
2019-03-06T14:44:44.386Z,11.03
2019-03-06T14:47:11.051Z,12.65
2019-03-06T14:49:37.463Z,13.50
2019-03-06T14:52:07.445Z,13.43
2019-03-06T14:54:32.915Z,12.63
2019-03-06T14:56:59.350Z,12.98
2019-03-06T14:59:25.776Z,13.85
2019-03-06T15:01:52.249Z,14.33
2019-03-06T15:04:18.846Z,14.25
2019-03-06T15:06:45.839Z,14.40
2019-03-06T15:09:21.202Z,13.15
2019-03-06T15:11:47.577Z,13.10
2019-03-06T15:14:14.002Z,13.80
2019-03-06T15:16:40.498Z,14.20
2019-03-06T15:19:06.872Z,13.85
2019-03-06T15:21:33.511Z,15.93
2019-03-06T15:23:59.921Z,16.60
2019-03-06T15:26:26.461Z,14.10
2019-03-06T15:28:52.916Z,16.27
2019-03-06T15:31:19.431Z,16.45
2019-03-06T15:33:46.995Z,16.45
2019-03-06T15:36:13.418Z,15.25
2019-03-06T15:38:39.804Z,16.52
2019-03-06T15:41:06.547Z,16.32
2019-03-06T15:43:32.938Z,15.15
2019-03-06T15:45:59.528Z,15.50
2019-03-06T15:48:26.006Z,14.38
2019-03-06T15:50:52.564Z,15.28
2019-03-06T15:53:24.372Z,14.45
2019-03-06T15:55:47.467Z,16.12
2019-03-06T15:58:14.289Z,15.32
2019-03-06T16:00:46.297Z,17.12
2019-03-06T16:03:12.943Z,14.70
2019-03-06T16:05:40.021Z,16.60
2019-03-06T16:08:07.376Z,17.32
2019-03-06T16:10:33.947Z,17.12
2019-03-06T16:13:00.986Z,16.70
2019-03-06T16:15:28.147Z,18.98
2019-03-06T16:17:56.582Z,16.82
2019-03-06T16:20:23.065Z,17.10
2019-03-06T16:22:49.730Z,18.23
2019-03-06T16:25:16.278Z,19.12
2019-03-06T16:27:43.034Z,19.95
2019-03-06T16:30:13.076Z,18.90
2019-03-06T16:32:39.815Z,19.10
2019-03-06T16:35:06.598Z,18.73
2019-03-06T16:37:33.327Z,19.80
2019-03-06T16:40:00.074Z,20.30
2019-03-06T16:42:27.180Z,19.98
2019-03-06T16:44:54.336Z,20.20
2019-03-06T16:47:22.132Z,19.80
2019-03-06T16:49:49.245Z,19.20
2019-03-06T16:52:16.186Z,19.55
2019-03-06T16:54:43.145Z,18.55
2019-03-06T16:57:10.157Z,18.07
2019-03-06T16:59:37.402Z,18.50
2019-03-06T17:02:04.335Z,21.42
2019-03-06T17:04:31.683Z,25.35
2019-03-06T17:06:58.672Z,24.32
2019-03-06T17:09:26.445Z,22.48
2019-03-06T17:11:54.064Z,20.27
2019-03-06T17:14:22.167Z,19.90
2019-03-06T17:16:50.525Z,19.23
2019-03-06T17:19:19.301Z,18.32
2019-03-06T17:21:46.268Z,19.48
2019-03-06T17:24:14.452Z,17.42
2019-03-06T17:26:42.792Z,18.07
2019-03-06T17:29:11.396Z,18.77
2019-03-06T17:31:39.596Z,20.43
2019-03-06T17:34:07.029Z,17.85
2019-03-06T17:36:35.836Z,17.90
2019-03-06T17:39:04.195Z,17.98
2019-03-06T17:41:34.029Z,18.20
2019-03-06T17:44:01.430Z,19.45
2019-03-06T17:46:31.049Z,18.62
2019-03-06T17:48:58.252Z,18.15
2019-03-06T17:51:25.542Z,18.23
2019-03-06T17:53:53.416Z,19.10
2019-03-06T17:56:21.182Z,18.45
2019-03-06T17:58:49.243Z,18.02
2019-03-06T18:01:18.060Z,19.75
2019-03-06T18:03:49.790Z,18.73
2019-03-06T18:06:35.778Z,19.48
2019-03-06T18:09:03.151Z,19.10
2019-03-06T18:11:31.893Z,19.87
2019-03-06T18:13:59.210Z,20.12
2019-03-06T18:16:26.947Z,18.80
2019-03-06T18:18:55.036Z,16.93
2019-03-06T18:21:22.802Z,18.87
2019-03-06T18:23:51.140Z,26.55
2019-03-06T18:26:21.188Z,24.47
2019-03-06T18:28:48.487Z,21.87
2019-03-06T18:31:15.627Z,20.45
2019-03-06T18:33:42.648Z,19.25
2019-03-06T18:36:09.873Z,17.98
2019-03-06T18:38:36.909Z,19.27
2019-03-06T18:41:03.972Z,18.85
2019-03-06T18:43:30.960Z,18.20
2019-03-06T18:45:57.995Z,18.87
2019-03-06T18:48:25.081Z,24.57
2019-03-06T18:50:52.086Z,19.62
2019-03-06T18:53:19.308Z,20.12
2019-03-06T18:55:46.336Z,18.55
2019-03-06T18:58:13.356Z,18.77
2019-03-06T19:00:40.485Z,18.67
2019-03-06T19:03:07.504Z,18.48
2019-03-06T19:05:34.681Z,22.20
2019-03-06T19:08:08.704Z,27.50
2019-03-06T19:10:38.882Z,21.60
2019-03-06T19:13:09.670Z,19.87
2019-03-06T19:15:38.698Z,19.27
2019-03-06T19:18:05.705Z,20.27
2019-03-06T19:20:32.777Z,21.10
2019-03-06T19:22:59.839Z,20.65
2019-03-06T19:25:27.326Z,20.60
2019-03-06T19:27:54.374Z,21.97
2019-03-06T19:30:23.539Z,24.23
2019-03-06T19:32:56.422Z,24.25
2019-03-06T19:35:26.209Z,24.67
2019-03-06T19:37:53.290Z,26.00
2019-03-06T19:40:22.955Z,28.10
2019-03-06T19:42:53.728Z,27.52
2019-03-06T19:45:26.141Z,28.23
2019-03-06T19:48:10.230Z,29.50
2019-03-06T19:50:39.829Z,29.12
2019-03-06T19:53:10.523Z,28.95
2019-03-06T19:55:44.509Z,30.68
2019-03-06T19:58:13.523Z,29.77
2019-03-06T20:00:45.436Z,30.25
2019-03-06T20:03:13.447Z,30.62
2019-03-06T20:05:41.345Z,29.72
2019-03-06T20:08:13.690Z,29.92
2019-03-06T20:10:53.757Z,30.05
2019-03-06T20:13:22.837Z,30.68
2019-03-06T20:15:52.366Z,31.30
2019-03-06T20:18:20.145Z,31.90
2019-03-06T20:20:47.670Z,36.73
2019-03-06T20:23:14.656Z,33.53
2019-03-06T20:25:41.674Z,31.33
2019-03-06T20:28:08.685Z,35.50
2019-03-06T20:30:35.802Z,33.38
2019-03-06T20:33:03.252Z,32.30
2019-03-06T20:35:31.901Z,33.35
2019-03-06T20:38:00.140Z,34.27
2019-03-06T20:40:27.099Z,31.20
2019-03-06T20:42:54.260Z,32.20
2019-03-06T20:45:21.279Z,30.68
2019-03-06T20:47:48.403Z,29.00
2019-03-06T20:50:16.705Z,29.60
2019-03-06T20:52:43.729Z,29.63
2019-03-06T20:55:11.395Z,29.90
2019-03-06T20:57:38.398Z,28.70
2019-03-06T21:00:24.782Z,26.55
2019-03-06T21:02:53.079Z,25.45
2019-03-06T21:05:39.772Z,25.75
2019-03-06T21:08:08.049Z,24.05
2019-03-06T21:10:35.520Z,25.02
2019-03-06T21:13:05.383Z,24.50
2019-03-06T21:15:36.475Z,24.37
2019-03-06T21:18:05.188Z,23.35
2019-03-06T21:20:32.179Z,24.23
2019-03-06T21:31:32.254Z,26.10
2019-03-06T21:34:00.917Z,25.37
2019-03-06T21:36:40.403Z,25.82
2019-03-06T21:39:19.401Z,25.48
2019-03-06T21:41:46.947Z,26.87
2019-03-06T21:44:14.191Z,28.50
2019-03-06T21:46:41.449Z,28.67
2019-03-06T21:49:08.870Z,27.90
2019-03-06T21:51:35.736Z,29.48
2019-03-06T21:54:08.718Z,30.95
2019-03-06T21:56:36.617Z,27.45
2019-03-06T21:59:03.174Z,27.22
2019-03-06T22:01:30.122Z,27.70
2019-03-06T22:03:56.619Z,26.37
2019-03-06T22:06:23.252Z,25.45
2019-03-06T22:08:49.659Z,25.15
2019-03-06T22:11:16.129Z,26.02
2019-03-06T22:13:42.621Z,27.22
2019-03-06T22:16:09.213Z,26.80
2019-03-06T22:18:35.694Z,28.30
2019-03-06T22:21:02.126Z,28.00
2019-03-06T22:23:28.588Z,28.67
2019-03-06T22:25:55.042Z,28.95
2019-03-06T22:28:21.529Z,29.72
2019-03-06T22:30:47.996Z,29.55
2019-03-06T22:33:28.470Z,30.00
2019-03-06T22:35:54.912Z,29.23
2019-03-06T22:38:21.335Z,30.52
2019-03-06T22:40:47.795Z,31.02
2019-03-06T22:43:14.285Z,31.00
2019-03-06T22:45:40.727Z,30.35
2019-03-06T22:48:07.176Z,30.30
2019-03-06T22:50:53.614Z,30.65
2019-03-06T22:53:21.130Z,29.27
2019-03-06T22:55:47.555Z,28.92
2019-03-06T22:58:14.138Z,30.35
2019-03-06T23:00:48.933Z,31.95
2019-03-06T23:03:17.291Z,30.82
2019-03-06T23:05:43.926Z,32.17
2019-03-06T23:08:10.529Z,30.57
2019-03-06T23:10:37.105Z,32.45
2019-03-06T23:13:03.635Z,33.28
2019-03-06T23:15:31.173Z,31.10
2019-03-06T23:17:57.894Z,31.57
2019-03-06T23:20:24.353Z,32.55
2019-03-06T23:22:50.781Z,30.37
2019-03-06T23:25:18.190Z,30.48
2019-03-06T23:27:45.122Z,31.77
2019-03-06T23:30:13.250Z,30.82
2019-03-06T23:32:39.637Z,29.85
2019-03-06T23:35:06.545Z,29.27
2019-03-06T23:37:34.085Z,30.80
2019-03-06T23:40:00.509Z,29.75
2019-03-06T23:42:26.913Z,29.30
2019-03-06T23:44:53.327Z,32.03
2019-03-06T23:47:19.710Z,29.20
2019-03-06T23:49:46.169Z,29.18
2019-03-06T23:52:28.128Z,29.23
2019-03-06T23:54:54.576Z,30.00
2019-03-06T23:57:21.009Z,28.57
2019-03-06T23:59:48.530Z,27.90
